createdAt,value
2023-01-22T00:00:32.429Z,98877.25
2023-01-22T00:02:40.171Z,98873.84
2023-01-22T00:04:45.837Z,98878.16
2023-01-22T00:06:50.408Z,98869.56
2023-01-22T00:08:55.376Z,98871.31
2023-01-22T00:11:00.041Z,98864.50
2023-01-22T00:13:04.810Z,98867.91
2023-01-22T00:15:10.207Z,98868.78
2023-01-22T00:17:14.811Z,98873.91
2023-01-22T00:19:21.993Z,98872.16
2023-01-22T00:21:27.855Z,98867.88
2023-01-22T00:23:33.222Z,98865.31
2023-01-22T00:25:37.943Z,98868.75
2023-01-22T00:27:44.886Z,98875.56
2023-01-22T00:29:49.472Z,98873.84
2023-01-22T00:31:54.098Z,98878.13
2023-01-22T00:33:58.858Z,98879.03
2023-01-22T00:36:09.722Z,98873.94
2023-01-22T00:38:15.599Z,98867.09
2023-01-22T00:40:20.867Z,98861.09
2023-01-22T00:42:25.489Z,98866.25
2023-01-22T00:44:31.439Z,98861.97
2023-01-22T00:46:36.080Z,98864.53
2023-01-22T00:48:40.995Z,98861.09
2023-01-22T00:50:45.737Z,98857.69
2023-01-22T00:52:52.952Z,98855.09
2023-01-22T00:54:57.605Z,98861.09
2023-01-22T00:57:02.674Z,98863.69
2023-01-22T00:59:10.568Z,98864.53
2023-01-22T01:01:15.741Z,98863.72
2023-01-22T01:03:30.945Z,98870.56
2023-01-22T01:05:36.035Z,98869.69
2023-01-22T01:07:40.614Z,98867.13
2023-01-22T01:09:47.861Z,98864.53
2023-01-22T01:11:52.476Z,98873.94
2023-01-22T01:13:57.024Z,98871.41
2023-01-22T01:16:02.385Z,98873.97
2023-01-22T01:18:09.200Z,98868.84
2023-01-22T01:20:14.453Z,98862.00
2023-01-22T01:22:19.106Z,98867.13
2023-01-22T01:24:23.637Z,98871.41
2023-01-22T01:26:31.176Z,98873.16
2023-01-22T01:28:37.331Z,98875.72
2023-01-22T01:30:41.915Z,98867.16
2023-01-22T01:32:46.536Z,98869.72
2023-01-22T01:34:52.959Z,98868.84
2023-01-22T01:36:57.610Z,98872.28
2023-01-22T01:39:03.783Z,98874.84
2023-01-22T01:41:09.843Z,98870.56
2023-01-22T01:43:20.278Z,98873.97
2023-01-22T01:45:26.592Z,98869.72
2023-01-22T01:47:34.539Z,98877.44
2023-01-22T01:49:41.890Z,98868.00
2023-01-22T01:51:46.449Z,98877.38
2023-01-22T01:53:53.192Z,98875.66
2023-01-22T01:55:58.939Z,98878.25
2023-01-22T01:58:06.983Z,98877.41
2023-01-22T02:00:17.256Z,98878.22
2023-01-22T02:02:22.748Z,98876.50
2023-01-22T02:04:27.351Z,98878.22
2023-01-22T02:06:32.471Z,98885.97
2023-01-22T02:08:37.612Z,98880.78
2023-01-22T02:10:42.903Z,98892.78
2023-01-22T02:12:48.830Z,98894.53
2023-01-22T02:14:54.367Z,98885.13
2023-01-22T02:17:08.988Z,98891.13
2023-01-22T02:19:13.574Z,98895.38
2023-01-22T02:21:33.894Z,98895.38
2023-01-22T02:23:38.445Z,98893.69
2023-01-22T02:25:44.619Z,98889.44
2023-01-22T02:27:50.458Z,98896.28
2023-01-22T02:29:58.414Z,98894.53
2023-01-22T02:32:03.156Z,98898.81
2023-01-22T02:34:08.776Z,98892.81
2023-01-22T02:36:13.723Z,98897.09
2023-01-22T02:38:22.176Z,98891.97
2023-01-22T02:40:26.828Z,98896.25
2023-01-22T02:42:31.616Z,98902.22
2023-01-22T02:44:36.420Z,98899.66
2023-01-22T02:46:41.070Z,98897.09
2023-01-22T02:48:45.731Z,98895.41
2023-01-22T02:50:50.536Z,98900.56
2023-01-22T02:52:55.270Z,98897.16
2023-01-22T02:55:02.581Z,98898.84
2023-01-22T02:57:08.459Z,98892.88
2023-01-22T02:59:13.080Z,98891.13
2023-01-22T03:01:21.672Z,98897.16
2023-01-22T03:03:29.592Z,98892.00
2023-01-22T03:05:34.182Z,98897.13
2023-01-22T03:07:50.661Z,98900.56
2023-01-22T03:09:56.691Z,98896.25
2023-01-22T03:12:03.844Z,98896.25
2023-01-22T03:14:23.565Z,98903.13
2023-01-22T03:16:44.030Z,98896.28
2023-01-22T03:19:03.346Z,98903.09
2023-01-22T03:21:20.359Z,98896.25
2023-01-22T03:23:27.638Z,98895.41
2023-01-22T03:25:32.267Z,98898.81
2023-01-22T03:27:59.524Z,98900.53
2023-01-22T03:30:04.198Z,98903.13
2023-01-22T03:32:12.328Z,98896.25
2023-01-22T03:34:18.794Z,98900.53
2023-01-22T03:36:23.443Z,98902.22
2023-01-22T03:38:31.875Z,98910.81
2023-01-22T03:40:36.547Z,98904.81
2023-01-22T03:42:43.815Z,98906.53
2023-01-22T03:44:48.660Z,98898.84
2023-01-22T03:46:54.247Z,98904.84
2023-01-22T03:49:03.391Z,98900.56
2023-01-22T03:51:10.108Z,98901.41
2023-01-22T03:53:14.829Z,98902.25
2023-01-22T03:55:19.798Z,98908.25
2023-01-22T03:57:24.497Z,98909.13
2023-01-22T03:59:31.736Z,98900.56
2023-01-22T04:01:36.606Z,98904.84
2023-01-22T04:03:41.352Z,98904.84
2023-01-22T04:05:46.098Z,98902.28
2023-01-22T04:07:52.038Z,98906.59
2023-01-22T04:10:01.215Z,98903.13
2023-01-22T04:12:05.967Z,98906.56
2023-01-22T04:14:10.573Z,98913.41
2023-01-22T04:16:22.328Z,98915.97
2023-01-22T04:18:44.258Z,98919.38
2023-01-22T04:21:21.148Z,98923.66
2023-01-22T04:23:31.251Z,98929.59
2023-01-22T04:25:37.968Z,98930.47
2023-01-22T04:27:43.068Z,98922.75
2023-01-22T04:29:47.948Z,98931.31
2023-01-22T04:31:55.156Z,98931.28
2023-01-22T04:34:17.536Z,98927.00
2023-01-22T04:36:32.402Z,98931.31
2023-01-22T04:38:37.813Z,98926.16
2023-01-22T04:40:42.584Z,98932.16
2023-01-22T04:42:47.175Z,98934.75
2023-01-22T04:44:52.597Z,98930.47
2023-01-22T04:46:59.869Z,98932.13
2023-01-22T04:49:04.710Z,98930.47
2023-01-22T04:51:09.402Z,98934.75
2023-01-22T04:53:14.258Z,98937.31
2023-01-22T04:55:20.019Z,98937.31
2023-01-22T04:57:32.081Z,98937.31
2023-01-22T04:59:37.726Z,98943.31
2023-01-22T05:01:42.507Z,98944.19
2023-01-22T05:03:49.801Z,98949.31
2023-01-22T05:05:54.465Z,98963.88
2023-01-22T05:07:59.581Z,98949.31
2023-01-22T05:10:04.425Z,98951.84
2023-01-22T05:12:09.415Z,98960.41
2023-01-22T05:14:18.531Z,98958.72
2023-01-22T05:16:25.431Z,98961.28
2023-01-22T05:18:30.875Z,98968.09
2023-01-22T05:20:38.895Z,98963.00
2023-01-22T05:22:44.863Z,98963.84
2023-01-22T05:24:49.831Z,98969.00
2023-01-22T05:26:55.271Z,98968.13
2023-01-22T05:29:07.075Z,98963.84
2023-01-22T05:31:43.476Z,98975.84
2023-01-22T05:34:02.119Z,98971.56
2023-01-22T05:36:12.798Z,98974.13
2023-01-22T05:38:17.979Z,98969.00
2023-01-22T05:40:22.745Z,98972.41
2023-01-22T05:42:27.519Z,98972.41
2023-01-22T05:44:33.501Z,98969.88
2023-01-22T05:46:39.556Z,98968.16
2023-01-22T05:49:02.495Z,98969.00
2023-01-22T05:51:13.256Z,98980.16
2023-01-22T05:53:17.959Z,98978.44
2023-01-22T05:55:22.593Z,98981.00
2023-01-22T05:57:29.847Z,98978.41
2023-01-22T05:59:34.694Z,98985.22
2023-01-22T06:01:42.374Z,98991.25
2023-01-22T06:03:47.701Z,98986.13
2023-01-22T06:06:02.816Z,98984.41
2023-01-22T06:08:10.346Z,98991.28
2023-01-22T06:10:22.791Z,98990.41
2023-01-22T06:12:27.442Z,98987.00
2023-01-22T06:14:32.897Z,98986.13
2023-01-22T06:16:38.666Z,98989.53
2023-01-22T06:18:53.961Z,98984.38
2023-01-22T06:21:01.161Z,98989.53
2023-01-22T06:23:05.786Z,99000.63
2023-01-22T06:25:13.405Z,99002.34
2023-01-22T06:27:33.365Z,99013.47
2023-01-22T06:29:40.147Z,99009.19
2023-01-22T06:31:45.408Z,99003.22
2023-01-22T06:33:55.890Z,99007.50
2023-01-22T06:36:01.786Z,99008.31
2023-01-22T06:38:06.504Z,99013.44
2023-01-22T06:40:16.008Z,99022.03
2023-01-22T06:42:23.200Z,99019.47
2023-01-22T06:44:28.865Z,99015.19
2023-01-22T06:46:33.577Z,99015.19
2023-01-22T06:48:43.745Z,99015.16
2023-01-22T06:50:48.496Z,99020.31
2023-01-22T06:52:53.550Z,99018.63
2023-01-22T06:54:58.417Z,99020.34
2023-01-22T06:57:06.606Z,99026.31
2023-01-22T06:59:14.359Z,99033.16
2023-01-22T07:01:19.000Z,99029.78
2023-01-22T07:03:23.785Z,99040.88
2023-01-22T07:05:28.464Z,99038.31
2023-01-22T07:07:33.217Z,99039.19
2023-01-22T07:09:37.985Z,99043.50
2023-01-22T07:11:42.944Z,99039.19
2023-01-22T07:13:50.129Z,99047.75
2023-01-22T07:15:55.314Z,99035.81
2023-01-22T07:17:59.918Z,99040.94
2023-01-22T07:20:04.631Z,99036.69
2023-01-22T07:22:09.252Z,99040.09
2023-01-22T07:24:14.024Z,99043.53
2023-01-22T07:26:18.656Z,99045.25
2023-01-22T07:28:23.462Z,99044.41
2023-01-22T07:30:31.091Z,99052.09
2023-01-22T07:32:35.751Z,99059.81
2023-01-22T07:34:40.366Z,99059.81
2023-01-22T07:36:44.973Z,99060.69
2023-01-22T07:38:49.621Z,99061.56
2023-01-22T07:40:54.196Z,99065.00
2023-01-22T07:42:58.768Z,99054.75
2023-01-22T07:45:03.384Z,99058.16
2023-01-22T07:47:10.640Z,99060.72
2023-01-22T07:49:15.258Z,99064.13
2023-01-22T07:51:20.125Z,99068.41
2023-01-22T07:53:24.733Z,99073.50
2023-01-22T07:55:29.426Z,99068.38
2023-01-22T07:57:34.020Z,99076.94
2023-01-22T07:59:38.626Z,99070.09
2023-01-22T08:01:43.317Z,99077.78
2023-01-22T08:03:50.726Z,99081.19
2023-01-22T08:05:56.633Z,99089.69
2023-01-22T08:08:01.543Z,99090.59
2023-01-22T08:10:06.479Z,99088.91
2023-01-22T08:12:11.104Z,99094.00
2023-01-22T08:14:15.786Z,99094.06
2023-01-22T08:16:20.602Z,99088.94
2023-01-22T08:18:25.574Z,99082.97
2023-01-22T08:20:32.829Z,99089.81
2023-01-22T08:22:37.530Z,99089.84
2023-01-22T08:24:42.817Z,99092.41
2023-01-22T08:26:47.467Z,99091.56
2023-01-22T08:28:52.209Z,99094.97
2023-01-22T08:30:59.849Z,99097.56
2023-01-22T08:33:05.268Z,99105.28
2023-01-22T08:35:10.261Z,99101.84
2023-01-22T08:37:17.470Z,99100.16
2023-01-22T08:39:22.086Z,99113.88
2023-01-22T08:41:27.211Z,99112.13
2023-01-22T08:43:32.793Z,99110.47
2023-01-22T08:45:37.504Z,99115.59
2023-01-22T08:47:42.059Z,99113.03
2023-01-22T08:49:46.614Z,99111.28
2023-01-22T08:51:51.495Z,99114.72
2023-01-22T08:53:58.671Z,99123.28
2023-01-22T08:56:03.342Z,99121.59
2023-01-22T08:58:08.540Z,99121.59
2023-01-22T09:00:14.054Z,99119.91
2023-01-22T09:02:18.616Z,99119.06
2023-01-22T09:04:23.337Z,99128.41
2023-01-22T09:06:28.106Z,99129.28
2023-01-22T09:08:32.717Z,99128.47
2023-01-22T09:10:40.021Z,99136.25
2023-01-22T09:12:44.581Z,99128.53
2023-01-22T09:14:49.146Z,99131.97
2023-01-22T09:16:53.736Z,99141.34
2023-01-22T09:18:58.294Z,99132.72
2023-01-22T09:21:04.375Z,99138.78
2023-01-22T09:23:08.965Z,99139.63
2023-01-22T09:25:13.495Z,99149.94
2023-01-22T09:27:20.629Z,99146.53
2023-01-22T09:29:25.305Z,99138.75
2023-01-22T09:31:29.939Z,99139.66
2023-01-22T09:33:34.544Z,99151.69
2023-01-22T09:35:39.154Z,99149.09
2023-01-22T09:37:43.686Z,99148.28
2023-01-22T09:39:50.263Z,99149.13
2023-01-22T09:41:57.695Z,99156.81
2023-01-22T09:44:06.589Z,99156.00
2023-01-22T09:46:15.391Z,99150.88
2023-01-22T09:48:21.230Z,99159.41
2023-01-22T09:50:27.221Z,99156.00
2023-01-22T09:52:33.711Z,99152.63
2023-01-22T09:54:38.499Z,99161.19
2023-01-22T09:56:44.481Z,99158.59
2023-01-22T09:58:50.760Z,99168.06
2023-01-22T10:01:00.567Z,99162.06
2023-01-22T10:03:08.397Z,99167.22
2023-01-22T10:05:19.393Z,99156.94
2023-01-22T10:07:26.972Z,99171.53
2023-01-22T10:09:33.095Z,99161.22
2023-01-22T10:11:39.187Z,99166.34
2023-01-22T10:13:43.758Z,99159.50
2023-01-22T10:15:48.349Z,99158.69
2023-01-22T10:17:57.532Z,99155.25
2023-01-22T10:20:04.785Z,99150.97
2023-01-22T10:22:13.429Z,99152.72
2023-01-22T10:24:18.045Z,99160.44
2023-01-22T10:26:25.394Z,99146.72
2023-01-22T10:28:31.170Z,99151.00
2023-01-22T10:30:36.171Z,99147.56
2023-01-22T10:32:40.807Z,99150.13
2023-01-22T10:35:00.031Z,99154.44
2023-01-22T10:37:05.986Z,99151.88
2023-01-22T10:39:13.731Z,99160.44
2023-01-22T10:41:19.963Z,99161.28
2023-01-22T10:43:25.972Z,99161.31
2023-01-22T10:45:30.517Z,99160.44
2023-01-22T10:47:35.197Z,99164.72
2023-01-22T10:49:39.800Z,99161.28
2023-01-22T10:51:49.764Z,99162.16
2023-01-22T10:53:56.058Z,99165.59
2023-01-22T10:56:01.667Z,99161.31
2023-01-22T10:58:08.614Z,99166.47
2023-01-22T11:00:23.747Z,99164.72
2023-01-22T11:02:29.235Z,99166.44
2023-01-22T11:04:35.263Z,99167.31
2023-01-22T11:06:43.536Z,99168.16
2023-01-22T11:08:53.925Z,99165.59
2023-01-22T11:11:00.822Z,99163.84
2023-01-22T11:13:10.370Z,99167.28
2023-01-22T11:15:21.044Z,99180.16
2023-01-22T11:17:28.348Z,99175.88
2023-01-22T11:19:37.775Z,99178.47
2023-01-22T11:21:45.489Z,99174.16
2023-01-22T11:23:55.107Z,99177.63
2023-01-22T11:26:05.862Z,99177.59
2023-01-22T11:28:17.859Z,99171.56
2023-01-22T11:30:33.900Z,99173.28
2023-01-22T11:32:45.307Z,99166.44
2023-01-22T11:34:55.985Z,99162.16
2023-01-22T11:37:01.917Z,99160.44
2023-01-22T11:39:12.276Z,99157.88
2023-01-22T11:41:26.276Z,99149.28
2023-01-22T11:43:40.669Z,99157.88
2023-01-22T11:45:52.796Z,99152.72
2023-01-22T11:48:04.144Z,99145.00
2023-01-22T11:50:13.583Z,99147.59
2023-01-22T11:52:26.811Z,99151.00
2023-01-22T11:54:41.624Z,99149.28
2023-01-22T11:56:51.850Z,99151.03
2023-01-22T11:59:00.654Z,99151.88
2023-01-22T12:01:11.850Z,99150.16
2023-01-22T12:03:35.007Z,99146.72
2023-01-22T12:05:42.112Z,99141.56
2023-01-22T12:07:55.645Z,99148.44
2023-01-22T12:10:09.305Z,99149.31
2023-01-22T12:12:21.967Z,99147.56
2023-01-22T12:14:32.788Z,99152.72
2023-01-22T12:16:43.413Z,99151.88
2023-01-22T12:19:03.011Z,99148.41
2023-01-22T12:21:09.997Z,99139.84
2023-01-22T12:23:18.654Z,99144.16
2023-01-22T12:25:32.480Z,99136.44
2023-01-22T12:27:38.956Z,99139.84
2023-01-22T12:29:45.893Z,99135.56
2023-01-22T12:31:53.079Z,99132.13
2023-01-22T12:33:57.783Z,99139.00
2023-01-22T12:36:03.918Z,99137.28
2023-01-22T12:38:15.110Z,99138.16
2023-01-22T12:40:26.668Z,99135.56
2023-01-22T12:42:39.100Z,99133.00
2023-01-22T12:44:51.675Z,99136.44
2023-01-22T12:47:03.663Z,99140.72
2023-01-22T12:49:09.881Z,99135.56
2023-01-22T12:51:26.137Z,99134.69
2023-01-22T12:53:34.423Z,99132.13
2023-01-22T12:55:44.077Z,99133.84
2023-01-22T12:57:51.457Z,99130.41
2023-01-22T12:59:57.005Z,99128.72
2023-01-22T13:02:02.863Z,99127.84
2023-01-22T13:04:08.834Z,99126.13
2023-01-22T13:06:21.465Z,99132.13
2023-01-22T13:08:30.980Z,99136.41
2023-01-22T13:10:36.855Z,99133.81
2023-01-22T13:12:47.185Z,99134.66
2023-01-22T13:14:54.655Z,99138.09
2023-01-22T13:17:00.900Z,99134.69
2023-01-22T13:19:19.736Z,99132.94
2023-01-22T13:21:27.372Z,99133.78
2023-01-22T13:23:33.455Z,99125.22
2023-01-22T13:25:38.070Z,99132.94
2023-01-22T13:27:42.673Z,99144.09
2023-01-22T13:29:47.264Z,99145.81
2023-01-22T13:31:58.410Z,99149.25
2023-01-22T13:34:08.785Z,99140.72
2023-01-22T13:36:14.627Z,99136.41
2023-01-22T13:38:23.167Z,99144.13
2023-01-22T13:40:31.550Z,99139.00
2023-01-22T13:42:39.969Z,99148.41
2023-01-22T13:44:49.085Z,99152.69
2023-01-22T13:46:54.509Z,99143.25
2023-01-22T13:49:06.854Z,99152.72
2023-01-22T13:51:18.474Z,99151.00
2023-01-22T13:53:26.636Z,99139.00
2023-01-22T13:55:32.772Z,99145.84
2023-01-22T13:57:37.412Z,99145.00
2023-01-22T13:59:42.077Z,99145.00
2023-01-22T14:01:46.760Z,99145.00
2023-01-22T14:04:00.775Z,99144.13
2023-01-22T14:06:09.280Z,99142.44
2023-01-22T14:08:14.670Z,99147.56
2023-01-22T14:10:21.832Z,99147.56
2023-01-22T14:12:27.137Z,99154.44
2023-01-22T14:14:41.075Z,99151.88
2023-01-22T14:16:46.148Z,99160.44
2023-01-22T14:18:50.831Z,99153.56
2023-01-22T14:20:56.493Z,99159.56
2023-01-22T14:23:03.971Z,99145.00
2023-01-22T14:25:09.323Z,99160.44
2023-01-22T14:27:14.533Z,99161.31
2023-01-22T14:29:19.349Z,99157.00
2023-01-22T14:31:24.071Z,99155.31
2023-01-22T14:33:29.369Z,99163.03
2023-01-22T14:35:34.254Z,99163.84
2023-01-22T14:37:42.340Z,99164.75
2023-01-22T14:39:49.501Z,99169.88
2023-01-22T14:41:54.231Z,99172.44
2023-01-22T14:43:58.820Z,99174.16
2023-01-22T14:46:03.599Z,99176.69
2023-01-22T14:48:08.761Z,99189.56
2023-01-22T14:50:14.175Z,99185.28
2023-01-22T14:52:18.816Z,99196.41
2023-01-22T14:54:23.607Z,99191.28
2023-01-22T14:56:30.760Z,99187.84
2023-01-22T14:58:36.408Z,99184.41
2023-01-22T15:00:41.436Z,99190.34
2023-01-22T15:02:46.404Z,99191.22
2023-01-22T15:04:50.973Z,99198.97
2023-01-22T15:06:55.600Z,99193.75
2023-01-22T15:09:00.289Z,99191.25
2023-01-22T15:11:05.797Z,99186.09
2023-01-22T15:13:12.973Z,99186.97
2023-01-22T15:15:18.821Z,99190.41
2023-01-22T15:17:24.044Z,99196.44
2023-01-22T15:19:36.327Z,99191.28
2023-01-22T15:21:45.182Z,99189.56
2023-01-22T15:23:49.828Z,99192.97
2023-01-22T15:26:00.790Z,99200.75
2023-01-22T15:28:05.780Z,99203.31
2023-01-22T15:30:14.051Z,99211.03
2023-01-22T15:32:18.664Z,99200.72
2023-01-22T15:34:24.071Z,99210.13
2023-01-22T15:36:28.904Z,99208.44
2023-01-22T15:38:33.695Z,99212.75
2023-01-22T15:40:38.945Z,99216.19
2023-01-22T15:42:43.500Z,99217.88
2023-01-22T15:44:48.300Z,99216.16
2023-01-22T15:46:57.349Z,99227.31
2023-01-22T15:49:02.500Z,99224.78
2023-01-22T15:51:10.299Z,99222.13
2023-01-22T15:53:14.886Z,99222.16
2023-01-22T15:55:19.443Z,99227.31
2023-01-22T15:57:24.159Z,99228.16
2023-01-22T15:59:28.683Z,99229.88
2023-01-22T16:01:33.365Z,99229.84
2023-01-22T16:03:40.765Z,99234.19
2023-01-22T16:05:45.369Z,99231.59
2023-01-22T16:07:52.492Z,99230.78
2023-01-22T16:09:57.764Z,99239.38
2023-01-22T16:12:02.682Z,99229.09
2023-01-22T16:14:07.675Z,99231.69
2023-01-22T16:16:17.574Z,99235.09
2023-01-22T16:18:22.338Z,99235.94
2023-01-22T16:20:29.509Z,99242.81
2023-01-22T16:22:34.240Z,99241.09
2023-01-22T16:24:39.424Z,99241.97
2023-01-22T16:26:44.050Z,99249.69
2023-01-22T16:28:49.219Z,99246.25
2023-01-22T16:30:53.894Z,99249.69
2023-01-22T16:32:58.469Z,99251.38
2023-01-22T16:35:03.088Z,99255.72
2023-01-22T16:37:10.519Z,99249.69
2023-01-22T16:39:19.013Z,99252.28
2023-01-22T16:41:25.652Z,99254.84
2023-01-22T16:43:30.373Z,99259.09
2023-01-22T16:45:36.403Z,99265.94
2023-01-22T16:47:40.971Z,99265.91
2023-01-22T16:49:45.527Z,99267.66
2023-01-22T16:51:50.887Z,99270.22
2023-01-22T16:53:58.326Z,99271.97
2023-01-22T16:56:02.937Z,99266.81
2023-01-22T16:58:07.604Z,99278.78
2023-01-22T17:00:13.023Z,99283.84
2023-01-22T17:02:19.315Z,99284.72
2023-01-22T17:04:24.232Z,99281.22
2023-01-22T17:06:29.926Z,99285.56
2023-01-22T17:08:34.600Z,99290.72
2023-01-22T17:10:41.915Z,99289.88
2023-01-22T17:12:46.503Z,99288.19
2023-01-22T17:14:52.811Z,99306.25
2023-01-22T17:16:57.471Z,99292.50
2023-01-22T17:19:03.563Z,99300.16
2023-01-22T17:21:09.043Z,99305.31
2023-01-22T17:23:13.622Z,99308.75
2023-01-22T17:25:18.347Z,99310.47
2023-01-22T17:27:26.005Z,99306.19
2023-01-22T17:29:33.527Z,99307.78
2023-01-22T17:31:38.591Z,99310.34
2023-01-22T17:33:43.335Z,99323.16
2023-01-22T17:35:48.084Z,99326.56
2023-01-22T17:37:52.911Z,99336.78
2023-01-22T17:39:57.612Z,99342.72
2023-01-22T17:42:02.273Z,99346.91
2023-01-22T17:44:09.515Z,99349.44
2023-01-22T17:46:15.058Z,99348.59
2023-01-22T17:48:19.758Z,99353.75
2023-01-22T17:50:24.384Z,99352.88
2023-01-22T17:52:28.982Z,99363.97
2023-01-22T17:54:33.719Z,99368.22
2023-01-22T17:56:43.101Z,99370.78
2023-01-22T17:58:50.416Z,99372.50
2023-01-22T18:00:57.608Z,99377.66
2023-01-22T18:03:02.224Z,99382.66
2023-01-22T18:05:08.733Z,99385.16
2023-01-22T18:07:14.167Z,99380.91
2023-01-22T18:09:18.850Z,99380.81
2023-01-22T18:11:26.583Z,99388.63
2023-01-22T18:13:31.130Z,99390.34
2023-01-22T18:15:35.724Z,99398.09
2023-01-22T18:17:42.856Z,99389.56
2023-01-22T18:19:47.569Z,99392.06
2023-01-22T18:21:52.575Z,99396.44
2023-01-22T18:23:57.237Z,99396.53
2023-01-22T18:26:05.828Z,99390.56
2023-01-22T18:28:10.429Z,99395.78
2023-01-22T18:30:15.519Z,99402.72
2023-01-22T18:32:20.285Z,99398.47
2023-01-22T18:34:27.498Z,99401.84
2023-01-22T18:36:32.799Z,99417.16
2023-01-22T18:38:37.568Z,99406.94
2023-01-22T18:40:42.366Z,99420.69
2023-01-22T18:42:50.256Z,99414.75
2023-01-22T18:44:56.326Z,99409.63
2023-01-22T18:47:01.829Z,99415.69
2023-01-22T18:49:07.823Z,99404.59
2023-01-22T18:51:18.262Z,99414.91
2023-01-22T18:53:22.879Z,99423.50
2023-01-22T18:55:27.492Z,99418.25
2023-01-22T18:57:34.948Z,99422.59
2023-01-22T18:59:39.616Z,99428.53
2023-01-22T19:01:50.588Z,99423.31
2023-01-22T19:03:56.785Z,99429.34
2023-01-22T19:06:01.388Z,99429.28
2023-01-22T19:08:08.569Z,99432.69
2023-01-22T19:10:13.183Z,99425.91
2023-01-22T19:12:18.975Z,99423.25
2023-01-22T19:14:24.169Z,99424.13
2023-01-22T19:16:29.801Z,99427.63
2023-01-22T19:18:34.642Z,99429.41
2023-01-22T19:20:39.590Z,99427.75
2023-01-22T19:22:44.430Z,99424.34
2023-01-22T19:24:51.578Z,99431.00
2023-01-22T19:26:56.927Z,99436.22
2023-01-22T19:29:02.384Z,99433.63
2023-01-22T19:31:07.259Z,99430.22
2023-01-22T19:33:11.945Z,99428.53
2023-01-22T19:35:17.072Z,99424.22
2023-01-22T19:37:21.830Z,99435.41
2023-01-22T19:39:28.080Z,99420.88
2023-01-22T19:41:35.673Z,99425.22
2023-01-22T19:43:42.126Z,99434.69
2023-01-22T19:45:46.705Z,99430.38
2023-01-22T19:47:51.316Z,99424.41
2023-01-22T19:49:55.923Z,99426.94
2023-01-22T19:52:00.647Z,99426.91
2023-01-22T19:54:05.643Z,99438.00
2023-01-22T19:56:17.694Z,99436.22
2023-01-22T19:58:25.390Z,99441.31
2023-01-22T20:00:30.090Z,99441.22
2023-01-22T20:02:34.765Z,99441.28
2023-01-22T20:04:39.460Z,99440.44
2023-01-22T20:06:45.338Z,99444.75
2023-01-22T20:08:50.048Z,99449.84
2023-01-22T20:11:00.735Z,99448.09
2023-01-22T20:13:05.542Z,99451.56
2023-01-22T20:15:15.542Z,99445.38
2023-01-22T20:17:21.066Z,99445.44
2023-01-22T20:19:25.647Z,99447.06
2023-01-22T20:21:31.011Z,99451.34
2023-01-22T20:23:35.550Z,99452.25
2023-01-22T20:25:41.072Z,99453.06
2023-01-22T20:27:45.909Z,99454.69
2023-01-22T20:29:50.507Z,99458.16
2023-01-22T20:31:59.312Z,99458.16
2023-01-22T20:34:05.957Z,99464.13
2023-01-22T20:36:11.779Z,99458.22
2023-01-22T20:38:16.375Z,99464.25
2023-01-22T20:40:21.276Z,99464.25
2023-01-22T20:42:26.015Z,99462.53
2023-01-22T20:44:32.245Z,99469.25
2023-01-22T20:46:37.758Z,99464.03
2023-01-22T20:48:45.211Z,99474.97
2023-01-22T20:50:50.003Z,99468.13
2023-01-22T20:52:56.179Z,99479.22
2023-01-22T20:55:02.660Z,99472.34
2023-01-22T20:57:07.401Z,99473.16
2023-01-22T20:59:13.830Z,99471.47
2023-01-22T21:01:19.447Z,99478.41
2023-01-22T21:03:24.385Z,99472.41
2023-01-22T21:05:31.524Z,99480.03
2023-01-22T21:07:36.129Z,99485.25
2023-01-22T21:09:41.169Z,99485.19
2023-01-22T21:11:45.940Z,99480.09
2023-01-22T21:13:50.932Z,99481.78
2023-01-22T21:15:58.344Z,99477.44
2023-01-22T21:18:03.218Z,99485.19
2023-01-22T21:20:09.211Z,99486.06
2023-01-22T21:22:16.407Z,99488.66
2023-01-22T21:24:21.701Z,99491.16
2023-01-22T21:26:27.176Z,99496.28
2023-01-22T21:28:31.799Z,99492.06
2023-01-22T21:30:36.810Z,99501.50
2023-01-22T21:32:41.449Z,99497.38
2023-01-22T21:34:45.998Z,99496.53
2023-01-22T21:36:53.217Z,99499.94
2023-01-22T21:39:00.377Z,99499.06
2023-01-22T21:41:11.995Z,99503.38
2023-01-22T21:43:45.027Z,99505.91
2023-01-22T21:46:02.140Z,99513.66
2023-01-22T21:48:07.056Z,99511.84
2023-01-22T21:50:12.611Z,99511.81
2023-01-22T21:52:17.200Z,99512.66
2023-01-22T21:54:25.318Z,99518.56
2023-01-22T21:56:29.863Z,99516.78
2023-01-22T21:58:34.493Z,99510.00
2023-01-22T22:00:39.107Z,99519.50
2023-01-22T22:02:43.804Z,99516.16
2023-01-22T22:04:48.766Z,99515.34
2023-01-22T22:06:53.679Z,99511.09
2023-01-22T22:09:01.239Z,99513.75
2023-01-22T22:11:08.621Z,99514.66
2023-01-22T22:13:13.244Z,99512.97
2023-01-22T22:15:17.971Z,99518.22
2023-01-22T22:17:22.498Z,99514.66
2023-01-22T22:19:29.001Z,99518.75
2023-01-22T22:21:33.571Z,99524.66
2023-01-22T22:23:39.148Z,99522.16
2023-01-22T22:25:43.727Z,99515.41
2023-01-22T22:27:50.860Z,99524.78
2023-01-22T22:29:55.449Z,99521.38
2023-01-22T22:32:00.057Z,99533.34
2023-01-22T22:34:04.620Z,99530.81
2023-01-22T22:36:10.068Z,99526.44
2023-01-22T22:38:14.682Z,99528.22
2023-01-22T22:40:19.807Z,99532.53
2023-01-22T22:42:24.533Z,99534.16
2023-01-22T22:44:31.827Z,99532.47
2023-01-22T22:46:37.379Z,99530.84
2023-01-22T22:48:42.249Z,99523.97
2023-01-22T22:50:46.800Z,99523.94
2023-01-22T22:52:51.373Z,99520.56
2023-01-22T22:54:55.923Z,99522.19
2023-01-22T22:57:00.566Z,99521.38
2023-01-22T22:59:05.343Z,99527.44
2023-01-22T23:01:13.673Z,99519.81
2023-01-22T23:03:18.394Z,99527.53
2023-01-22T23:05:23.036Z,99527.53
2023-01-22T23:07:27.644Z,99537.81
2023-01-22T23:09:32.219Z,99528.44
2023-01-22T23:11:37.417Z,99530.94
2023-01-22T23:13:42.213Z,99536.09
2023-01-22T23:15:46.870Z,99528.47
2023-01-22T23:17:54.063Z,99536.25
2023-01-22T23:19:58.630Z,99531.16
2023-01-22T23:22:03.511Z,99533.75
2023-01-22T23:24:08.428Z,99535.50
2023-01-22T23:26:14.134Z,99544.97
2023-01-22T23:28:18.760Z,99543.25
2023-01-22T23:30:23.485Z,99542.41
2023-01-22T23:32:28.281Z,99544.97
2023-01-22T23:34:35.467Z,99548.41
2023-01-22T23:36:43.418Z,99540.69
2023-01-22T23:38:48.042Z,99537.34
2023-01-22T23:40:58.905Z,99531.34
2023-01-22T23:43:03.515Z,99533.06
2023-01-22T23:45:09.206Z,99534.78
2023-01-22T23:47:14.884Z,99530.47
2023-01-22T23:49:19.404Z,99536.44
2023-01-22T23:51:26.751Z,99537.34
2023-01-22T23:53:31.594Z,99534.75
2023-01-22T23:55:36.205Z,99529.63
2023-01-22T23:57:40.804Z,99531.31
2023-01-22T23:59:45.551Z,99530.44
